createdAt,value
2023-05-16T00:00:11.141Z,99514.17
2023-05-16T00:03:55.264Z,99520.33
2023-05-16T00:06:59.468Z,99515.50
2023-05-16T00:10:03.643Z,99511.02
2023-05-16T00:13:07.711Z,99513.27
2023-05-16T00:16:14.770Z,99514.53
2023-05-16T00:19:20.393Z,99519.52
2023-05-16T00:22:25.755Z,99522.14
2023-05-16T00:25:29.722Z,99526.86
2023-05-16T00:28:33.695Z,99528.94
2023-05-16T00:31:37.868Z,99524.70
2023-05-16T00:34:42.569Z,99522.45
2023-05-16T00:37:46.757Z,99519.48
2023-05-16T00:40:50.993Z,99510.95
2023-05-16T00:43:54.975Z,99515.70
2023-05-16T00:47:00.440Z,99517.98
2023-05-16T00:50:05.664Z,99520.25
2023-05-16T00:53:11.061Z,99513.32
2023-05-16T00:56:16.896Z,99506.24
2023-05-16T00:59:21.115Z,99502.52
2023-05-16T01:02:29.254Z,99504.98
2023-05-16T01:05:33.649Z,99506.63
2023-05-16T01:08:37.652Z,99511.71
2023-05-16T01:12:02.259Z,99515.64
2023-05-16T01:15:22.833Z,99524.98
2023-05-16T01:18:52.308Z,99529.50
2023-05-16T01:22:06.736Z,99534.25
2023-05-16T01:25:46.901Z,99535.53
2023-05-16T01:28:52.257Z,99541.89
2023-05-16T01:31:56.289Z,99544.84
2023-05-16T01:35:00.614Z,99548.33
2023-05-16T01:38:24.875Z,99554.17
2023-05-16T01:42:04.227Z,99556.61
2023-05-16T01:45:45.997Z,99559.43
2023-05-16T01:49:17.013Z,99564.70
2023-05-16T01:52:45.362Z,99559.95
2023-05-16T01:55:53.261Z,99566.48
2023-05-16T01:58:59.534Z,99565.27
2023-05-16T02:02:03.570Z,99557.27
2023-05-16T02:05:08.596Z,99559.55
2023-05-16T02:08:13.937Z,99563.63
2023-05-16T02:11:19.282Z,99558.16
2023-05-16T02:14:23.400Z,99556.21
2023-05-16T02:17:28.049Z,99554.19
2023-05-16T02:20:33.377Z,99567.50
2023-05-16T02:23:38.523Z,99574.52
2023-05-16T02:26:42.845Z,99576.80
2023-05-16T02:29:46.964Z,99578.60
2023-05-16T02:32:51.017Z,99579.18
2023-05-16T02:35:55.506Z,99580.67
2023-05-16T02:38:59.523Z,99583.17
2023-05-16T02:42:04.437Z,99582.61
2023-05-16T02:45:09.431Z,99579.67
2023-05-16T02:48:13.643Z,99586.22
2023-05-16T02:51:21.109Z,99584.61
2023-05-16T02:54:25.141Z,99588.11
2023-05-16T02:57:29.149Z,99589.09
2023-05-16T03:00:33.262Z,99588.45
2023-05-16T03:03:37.657Z,99587.52
2023-05-16T03:06:41.912Z,99586.91
2023-05-16T03:09:46.025Z,99588.10
2023-05-16T03:12:50.040Z,99589.91
2023-05-16T03:15:54.095Z,99591.20
2023-05-16T03:18:58.345Z,99595.25
2023-05-16T03:22:02.811Z,99594.48
2023-05-16T03:25:07.953Z,99598.55
2023-05-16T03:28:14.068Z,99597.76
2023-05-16T03:31:19.582Z,99603.02
2023-05-16T03:34:23.890Z,99599.61
2023-05-16T03:37:28.211Z,99597.80
2023-05-16T03:40:32.428Z,99592.00
2023-05-16T03:43:36.744Z,99594.72
2023-05-16T03:46:40.770Z,99596.77
2023-05-16T03:49:44.791Z,99606.30
2023-05-16T03:52:48.777Z,99608.38
2023-05-16T03:55:52.821Z,99603.80
2023-05-16T03:58:56.880Z,99601.87
2023-05-16T04:02:01.343Z,99604.16
2023-05-16T04:05:10.217Z,99605.99
2023-05-16T04:08:14.613Z,99606.95
2023-05-16T04:11:18.734Z,99607.22
2023-05-16T04:14:25.624Z,99613.85
2023-05-16T04:17:29.874Z,99615.02
2023-05-16T04:20:33.945Z,99616.67
2023-05-16T04:23:38.075Z,99614.06
2023-05-16T04:26:42.091Z,99615.06
2023-05-16T04:29:46.163Z,99615.61
2023-05-16T04:32:50.165Z,99615.73
2023-05-16T04:35:54.840Z,99614.24
2023-05-16T04:38:58.869Z,99609.98
2023-05-16T04:42:03.312Z,99613.20
2023-05-16T04:45:10.999Z,99618.73
2023-05-16T04:48:15.430Z,99623.11
2023-05-16T04:51:19.649Z,99622.30
2023-05-16T04:54:23.768Z,99623.98
2023-05-16T04:57:28.290Z,99629.57
2023-05-16T05:00:32.616Z,99635.52
2023-05-16T05:03:36.737Z,99637.31
2023-05-16T05:06:41.373Z,99635.64
2023-05-16T05:09:45.322Z,99635.79
2023-05-16T05:12:49.398Z,99634.56
2023-05-16T05:15:53.723Z,99639.02
2023-05-16T05:18:58.388Z,99637.08
2023-05-16T05:22:02.629Z,99639.62
2023-05-16T05:25:07.601Z,99647.98
2023-05-16T05:28:11.725Z,99655.67
2023-05-16T05:31:16.822Z,99655.94
2023-05-16T05:34:21.114Z,99655.48
2023-05-16T05:37:26.229Z,99660.31
2023-05-16T05:40:30.457Z,99663.56
2023-05-16T05:43:35.303Z,99664.05
2023-05-16T05:46:39.807Z,99671.64
2023-05-16T05:49:43.933Z,99669.23
2023-05-16T05:52:48.224Z,99674.39
2023-05-16T05:55:52.236Z,99674.68
2023-05-16T05:58:56.591Z,99682.12
2023-05-16T06:02:00.654Z,99692.46
2023-05-16T06:05:05.405Z,99698.40
2023-05-16T06:08:09.871Z,99706.46
2023-05-16T06:11:13.886Z,99709.39
2023-05-16T06:14:18.338Z,99718.14
2023-05-16T06:17:22.775Z,99730.02
2023-05-16T06:20:26.853Z,99732.47
2023-05-16T06:23:31.776Z,99739.63
2023-05-16T06:26:36.843Z,99736.26
2023-05-16T06:29:41.076Z,99741.54
2023-05-16T06:32:45.391Z,99739.47
2023-05-16T06:35:50.320Z,99742.99
2023-05-16T06:38:54.433Z,99751.02
2023-05-16T06:41:58.464Z,99754.02
2023-05-16T06:45:02.692Z,99756.45
2023-05-16T06:48:08.225Z,99758.23
2023-05-16T06:51:12.666Z,99764.92
2023-05-16T06:54:17.146Z,99763.98
2023-05-16T06:57:21.293Z,99770.52
2023-05-16T07:00:25.948Z,99778.27
2023-05-16T07:03:32.182Z,99788.36
2023-05-16T07:06:36.865Z,99796.77
2023-05-16T07:09:41.046Z,99806.78
2023-05-16T07:12:45.195Z,99814.90
2023-05-16T07:15:49.613Z,99821.81
2023-05-16T07:18:54.210Z,99830.45
2023-05-16T07:21:58.380Z,99828.84
2023-05-16T07:25:02.407Z,99837.42
2023-05-16T07:28:06.491Z,99836.35
2023-05-16T07:31:10.607Z,99841.72
2023-05-16T07:34:14.833Z,99851.92
2023-05-16T07:37:20.703Z,99855.96
2023-05-16T07:40:28.464Z,99860.55
2023-05-16T07:43:35.428Z,99868.83
2023-05-16T07:46:39.862Z,99870.84
2023-05-16T07:49:44.199Z,99861.88
2023-05-16T07:52:48.153Z,99861.61
2023-05-16T07:55:52.542Z,99867.57
2023-05-16T07:58:56.650Z,99868.70
2023-05-16T08:02:01.176Z,99876.30
2023-05-16T08:05:06.111Z,99875.10
2023-05-16T08:08:10.182Z,99881.13
2023-05-16T08:11:14.210Z,99887.24
2023-05-16T08:14:19.008Z,99888.13
2023-05-16T08:17:23.101Z,99889.14
2023-05-16T08:20:27.979Z,99891.26
2023-05-16T08:23:32.002Z,99893.20
2023-05-16T08:26:37.544Z,99888.20
2023-05-16T08:29:41.880Z,99894.81
2023-05-16T08:32:46.018Z,99896.20
2023-05-16T08:35:52.819Z,99891.92
2023-05-16T08:38:56.863Z,99890.89
2023-05-16T08:42:01.053Z,99884.73
2023-05-16T08:45:07.632Z,99884.23
2023-05-16T08:48:14.575Z,99884.92
2023-05-16T08:51:20.598Z,99884.64
2023-05-16T08:54:26.762Z,99885.48
2023-05-16T08:57:33.972Z,99894.48
2023-05-16T09:00:39.189Z,99906.32
2023-05-16T09:03:44.202Z,99907.66
2023-05-16T09:06:48.893Z,99908.77
2023-05-16T09:09:53.439Z,99904.83
2023-05-16T09:12:57.495Z,99908.70
2023-05-16T09:16:19.622Z,99910.50
2023-05-16T09:19:23.847Z,99911.95
2023-05-16T09:22:29.685Z,99919.91
2023-05-16T09:25:34.183Z,99926.27
2023-05-16T09:28:39.882Z,99933.10
2023-05-16T09:31:44.062Z,99937.70
2023-05-16T09:34:49.482Z,99939.23
2023-05-16T09:37:54.145Z,99947.70
2023-05-16T09:40:58.783Z,99949.48
2023-05-16T09:44:06.698Z,99952.95
2023-05-16T09:47:11.748Z,99962.41
2023-05-16T09:50:17.324Z,99967.34
2023-05-16T09:53:30.315Z,99965.20
2023-05-16T09:56:35.102Z,99962.84
2023-05-16T09:59:40.081Z,99968.45
2023-05-16T10:02:44.653Z,99979.14
2023-05-16T10:05:50.107Z,99992.45
2023-05-16T10:08:54.943Z,100001.79
2023-05-16T10:12:06.486Z,100005.33
2023-05-16T10:15:10.668Z,100004.33
2023-05-16T10:18:15.532Z,100006.70
2023-05-16T10:21:22.112Z,99997.63
2023-05-16T10:24:52.742Z,99999.37
2023-05-16T10:27:58.437Z,100007.34
2023-05-16T10:31:03.290Z,100003.79
2023-05-16T10:34:07.720Z,100013.14
2023-05-16T10:37:11.944Z,100014.30
2023-05-16T10:40:17.254Z,100022.84
2023-05-16T10:43:30.643Z,100023.95
2023-05-16T10:46:34.798Z,100027.02
2023-05-16T10:49:42.014Z,100018.89
2023-05-16T10:52:45.997Z,100017.77
2023-05-16T10:55:58.993Z,100010.26
2023-05-16T10:59:04.977Z,100021.73
2023-05-16T11:02:28.047Z,100027.39
2023-05-16T11:05:33.671Z,100020.15
2023-05-16T11:08:37.719Z,100028.79
2023-05-16T11:12:00.864Z,100029.91
2023-05-16T11:15:25.616Z,100030.59
2023-05-16T11:18:33.107Z,100033.02
2023-05-16T11:22:05.668Z,100036.55
2023-05-16T11:25:11.017Z,100040.04
2023-05-16T11:28:15.656Z,100052.26
2023-05-16T11:31:20.286Z,100057.05
2023-05-16T11:34:24.868Z,100050.11
2023-05-16T11:37:29.583Z,100035.21
2023-05-16T11:40:34.983Z,100034.91
2023-05-16T11:43:45.264Z,100035.75
2023-05-16T11:46:50.548Z,100043.02
2023-05-16T11:49:58.503Z,100045.40
2023-05-16T11:53:02.814Z,100053.86
2023-05-16T11:56:08.951Z,100050.06
2023-05-16T11:59:13.508Z,100054.10
2023-05-16T12:02:17.548Z,100059.52
2023-05-16T12:05:27.384Z,100055.50
2023-05-16T12:08:32.321Z,100058.34
2023-05-16T12:11:44.323Z,100062.45
2023-05-16T12:14:50.422Z,100061.48
2023-05-16T12:17:55.283Z,100052.41
2023-05-16T12:20:59.786Z,100054.95
2023-05-16T12:24:04.200Z,100061.55
2023-05-16T12:27:08.802Z,100060.59
2023-05-16T12:30:17.137Z,100062.08
2023-05-16T12:33:22.267Z,100061.77
2023-05-16T12:36:31.682Z,100056.63
2023-05-16T12:39:39.594Z,100065.55
2023-05-16T12:42:45.493Z,100058.84
2023-05-16T12:45:55.323Z,100053.73
2023-05-16T12:49:05.600Z,100056.64
2023-05-16T12:52:18.113Z,100052.30
2023-05-16T12:55:23.090Z,100053.19
2023-05-16T12:58:27.582Z,100056.94
2023-05-16T13:01:31.944Z,100058.04
2023-05-16T13:04:37.105Z,100051.28
2023-05-16T13:07:41.672Z,100052.98
2023-05-16T13:10:45.761Z,100052.77
2023-05-16T13:13:49.836Z,100057.05
2023-05-16T13:16:53.885Z,100057.86
2023-05-16T13:19:58.212Z,100064.09
2023-05-16T13:23:02.488Z,100067.66
2023-05-16T13:26:06.585Z,100072.00
2023-05-16T13:29:12.161Z,100071.28
2023-05-16T13:32:16.327Z,100073.04
2023-05-16T13:35:20.484Z,100076.47
2023-05-16T13:38:24.544Z,100077.00
2023-05-16T13:41:28.990Z,100074.39
2023-05-16T13:44:33.439Z,100073.54
2023-05-16T13:47:38.025Z,100074.54
2023-05-16T13:50:44.214Z,100075.23
2023-05-16T13:53:48.816Z,100080.02
2023-05-16T13:56:53.163Z,100082.17
2023-05-16T14:00:24.863Z,100089.98
2023-05-16T14:03:21.457Z,100086.89
2023-05-16T14:06:25.905Z,100082.80
2023-05-16T14:09:29.946Z,100086.27
2023-05-16T14:12:33.967Z,100081.30
2023-05-16T14:15:38.249Z,100084.30
2023-05-16T14:18:42.302Z,100081.20
2023-05-16T14:21:46.506Z,100082.06
2023-05-16T14:24:50.905Z,100076.95
2023-05-16T14:27:54.953Z,100072.50
2023-05-16T14:30:59.948Z,100075.15
2023-05-16T14:34:04.361Z,100072.58
2023-05-16T14:37:10.283Z,100070.77
2023-05-16T14:40:14.302Z,100072.95
2023-05-16T14:43:18.517Z,100071.73
2023-05-16T14:46:22.510Z,100072.71
2023-05-16T14:49:26.541Z,100073.23
2023-05-16T14:52:30.735Z,100072.95
2023-05-16T14:55:34.876Z,100074.54
2023-05-16T14:58:38.898Z,100073.98
2023-05-16T15:01:42.973Z,100078.10
2023-05-16T15:04:47.037Z,100080.47
2023-05-16T15:07:51.520Z,100081.30
2023-05-16T15:10:55.450Z,100086.42
2023-05-16T15:14:00.544Z,100084.86
2023-05-16T15:17:07.309Z,100080.49
2023-05-16T15:20:13.027Z,100075.40
2023-05-16T15:23:17.012Z,100078.04
2023-05-16T15:26:22.634Z,100074.19
2023-05-16T15:29:26.628Z,100080.03
2023-05-16T15:32:30.792Z,100080.55
2023-05-16T15:35:34.820Z,100078.00
2023-05-16T15:38:44.124Z,100075.52
2023-05-16T15:42:08.483Z,100076.77
2023-05-16T15:45:12.625Z,100077.58
2023-05-16T15:48:16.757Z,100076.74
2023-05-16T15:51:21.187Z,100076.73
2023-05-16T15:54:25.301Z,100068.81
2023-05-16T15:57:30.621Z,100065.73
2023-05-16T16:00:34.653Z,100062.60
2023-05-16T16:03:38.826Z,100061.93
2023-05-16T16:06:43.029Z,100067.08
2023-05-16T16:09:47.076Z,100064.54
2023-05-16T16:13:04.526Z,100061.30
2023-05-16T16:16:08.605Z,100054.33
2023-05-16T16:19:12.914Z,100056.79
2023-05-16T16:22:17.209Z,100055.28
2023-05-16T16:25:21.198Z,100058.39
2023-05-16T16:28:25.222Z,100058.24
2023-05-16T16:31:29.271Z,100059.44
2023-05-16T16:34:33.950Z,100061.36
2023-05-16T16:37:38.930Z,100059.85
2023-05-16T16:40:43.007Z,100060.17
2023-05-16T16:43:47.008Z,100062.45
2023-05-16T16:46:51.496Z,100063.75
2023-05-16T16:49:56.021Z,100061.46
2023-05-16T16:53:01.883Z,100060.04
2023-05-16T16:56:07.000Z,100061.70
2023-05-16T16:59:11.807Z,100061.39
2023-05-16T17:02:16.211Z,100058.83
2023-05-16T17:05:20.808Z,100057.95
2023-05-16T17:08:25.115Z,100062.61
2023-05-16T17:11:30.124Z,100062.31
2023-05-16T17:14:35.058Z,100065.63
2023-05-16T17:17:39.200Z,100066.41
2023-05-16T17:20:43.336Z,100068.09
2023-05-16T17:23:47.620Z,100070.27
2023-05-16T17:26:51.868Z,100076.48
2023-05-16T17:29:55.874Z,100081.91
2023-05-16T17:32:59.970Z,100083.80
2023-05-16T17:36:05.152Z,100086.17
2023-05-16T17:39:10.884Z,100088.13
2023-05-16T17:42:15.016Z,100087.78
2023-05-16T17:45:19.166Z,100087.73
2023-05-16T17:48:23.777Z,100091.77
2023-05-16T17:51:27.813Z,100089.63
2023-05-16T17:54:32.238Z,100087.41
2023-05-16T17:57:38.271Z,100086.75
2023-05-16T18:00:42.473Z,100092.84
2023-05-16T18:03:46.467Z,100091.88
2023-05-16T18:06:53.601Z,100097.72
2023-05-16T18:09:57.609Z,100099.94
2023-05-16T18:13:02.055Z,100102.08
2023-05-16T18:16:06.256Z,100105.79
2023-05-16T18:19:10.526Z,100106.38
2023-05-16T18:22:15.008Z,100105.42
2023-05-16T18:25:19.768Z,100105.73
2023-05-16T18:28:24.168Z,100110.22
2023-05-16T18:31:28.235Z,100112.33
2023-05-16T18:34:32.398Z,100110.25
2023-05-16T18:37:37.354Z,100110.05
2023-05-16T18:40:41.449Z,100113.48
2023-05-16T18:43:45.761Z,100114.45
2023-05-16T18:46:52.689Z,100116.60
2023-05-16T18:49:56.956Z,100112.10
2023-05-16T18:53:01.644Z,100115.91
2023-05-16T18:56:05.726Z,100113.43
2023-05-16T18:59:10.058Z,100116.16
2023-05-16T19:02:14.152Z,100116.35
2023-05-16T19:05:19.589Z,100115.61
2023-05-16T19:08:25.571Z,100116.58
2023-05-16T19:11:31.542Z,100112.21
2023-05-16T19:14:35.519Z,100115.37
2023-05-16T19:17:41.697Z,100114.23
2023-05-16T19:20:45.851Z,100115.02
2023-05-16T19:23:49.938Z,100113.39
2023-05-16T19:26:54.062Z,100116.55
2023-05-16T19:29:58.404Z,100113.64
2023-05-16T19:33:02.598Z,100112.78
2023-05-16T19:36:08.003Z,100115.67
2023-05-16T19:39:12.379Z,100113.56
2023-05-16T19:42:16.433Z,100115.40
2023-05-16T19:45:21.376Z,100115.13
2023-05-16T19:48:25.644Z,100121.52
2023-05-16T19:51:40.884Z,100125.19
2023-05-16T19:54:45.896Z,100126.80
2023-05-16T19:57:52.335Z,100130.05
2023-05-16T20:00:57.738Z,100127.90
2023-05-16T20:04:02.841Z,100127.98
2023-05-16T20:07:07.487Z,100126.66
2023-05-16T20:10:11.952Z,100128.30
2023-05-16T20:13:20.440Z,100132.08
2023-05-16T20:16:24.543Z,100132.91
2023-05-16T20:19:29.751Z,100132.60
2023-05-16T20:22:34.450Z,100133.55
2023-05-16T20:25:38.519Z,100130.16
2023-05-16T20:28:42.499Z,100131.15
2023-05-16T20:31:46.519Z,100130.36
2023-05-16T20:34:50.822Z,100129.33
2023-05-16T20:37:54.850Z,100126.27
2023-05-16T20:40:59.640Z,100125.65
2023-05-16T20:44:03.739Z,100131.70
2023-05-16T20:47:08.163Z,100134.08
2023-05-16T20:50:12.178Z,100135.73
2023-05-16T20:53:16.190Z,100137.13
2023-05-16T20:56:20.142Z,100138.83
2023-05-16T20:59:24.992Z,100140.06
2023-05-16T21:02:29.064Z,100143.85
2023-05-16T21:05:35.872Z,100146.58
2023-05-16T21:08:40.079Z,100145.55
2023-05-16T21:11:44.057Z,100143.07
2023-05-16T21:14:48.411Z,100150.81
2023-05-16T21:17:52.455Z,100147.25
2023-05-16T21:20:56.747Z,100147.59
2023-05-16T21:24:00.812Z,100148.59
2023-05-16T21:27:05.450Z,100149.08
2023-05-16T21:30:10.043Z,100148.35
2023-05-16T21:33:14.399Z,100150.90
2023-05-16T21:36:19.820Z,100150.43
2023-05-16T21:39:23.905Z,100150.91
2023-05-16T21:42:27.974Z,100149.12
2023-05-16T21:45:32.059Z,100149.67
2023-05-16T21:48:36.219Z,100150.23
2023-05-16T21:51:41.133Z,100150.31
2023-05-16T21:54:51.437Z,100146.80
2023-05-16T21:57:55.475Z,100148.79
2023-05-16T22:01:12.014Z,100148.89
2023-05-16T22:04:28.057Z,100152.16
2023-05-16T22:07:32.265Z,100152.48
2023-05-16T22:10:36.545Z,100154.05
2023-05-16T22:13:40.742Z,100149.98
2023-05-16T22:16:45.118Z,100150.39
2023-05-16T22:19:49.275Z,100146.11
2023-05-16T22:22:53.936Z,100144.77
2023-05-16T22:25:57.976Z,100148.40
2023-05-16T22:29:02.007Z,100146.96
2023-05-16T22:32:09.981Z,100147.66
2023-05-16T22:35:14.262Z,100148.94
2023-05-16T22:38:18.303Z,100149.23
2023-05-16T22:41:22.297Z,100148.55
2023-05-16T22:44:26.773Z,100150.29
2023-05-16T22:47:31.123Z,100152.59
2023-05-16T22:50:35.139Z,100152.41
2023-05-16T22:53:39.262Z,100150.14
2023-05-16T22:56:43.735Z,100151.00
2023-05-16T22:59:47.709Z,100154.24
2023-05-16T23:02:52.004Z,100149.54
2023-05-16T23:05:56.510Z,100153.16
2023-05-16T23:09:00.741Z,100151.59
2023-05-16T23:12:04.972Z,100152.25
2023-05-16T23:15:10.501Z,100150.77
2023-05-16T23:18:14.656Z,100150.06
2023-05-16T23:21:18.772Z,100149.30
2023-05-16T23:24:23.149Z,100150.92
2023-05-16T23:27:27.139Z,100145.83
2023-05-16T23:30:31.641Z,100145.99
2023-05-16T23:33:35.897Z,100145.65
2023-05-16T23:36:40.628Z,100142.89
2023-05-16T23:39:44.770Z,100144.35
2023-05-16T23:42:48.911Z,100144.69
2023-05-16T23:45:52.937Z,100143.43
2023-05-16T23:48:57.401Z,100140.40
2023-05-16T23:52:01.669Z,100141.63
2023-05-16T23:55:06.324Z,100138.52
2023-05-16T23:58:10.372Z,100136.64
